sensor_id;sensor_type;location;lat;lon;timestamp;P1;durP1;ratioP1;P2;durP2;ratioP2
32810;SDS011;65470;47.324;8.548;2023-05-23T00:01:03;23.10;;;18.95;;
32810;SDS011;65470;47.324;8.548;2023-05-23T00:03:32;19.45;;;17.40;;
32810;SDS011;65470;47.324;8.548;2023-05-23T00:05:59;19.90;;;17.70;;
32810;SDS011;65470;47.324;8.548;2023-05-23T00:08:25;24.20;;;17.70;;
32810;SDS011;65470;47.324;8.548;2023-05-23T00:10:50;18.83;;;16.23;;
32810;SDS011;65470;47.324;8.548;2023-05-23T00:13:16;18.98;;;17.08;;
32810;SDS011;65470;47.324;8.548;2023-05-23T00:15:42;18.25;;;15.70;;
32810;SDS011;65470;47.324;8.548;2023-05-23T00:18:09;23.98;;;18.45;;
32810;SDS011;65470;47.324;8.548;2023-05-23T00:20:37;18.33;;;16.58;;
32810;SDS011;65470;47.324;8.548;2023-05-23T00:23:08;19.85;;;15.63;;
32810;SDS011;65470;47.324;8.548;2023-05-23T00:25:35;18.42;;;16.40;;
32810;SDS011;65470;47.324;8.548;2023-05-23T00:28:01;19.70;;;15.90;;
32810;SDS011;65470;47.324;8.548;2023-05-23T00:30:31;17.30;;;14.57;;
32810;SDS011;65470;47.324;8.548;2023-05-23T00:32:57;19.92;;;15.77;;
32810;SDS011;65470;47.324;8.548;2023-05-23T00:35:24;18.25;;;14.82;;
32810;SDS011;65470;47.324;8.548;2023-05-23T00:37:50;17.75;;;14.93;;
32810;SDS011;65470;47.324;8.548;2023-05-23T00:40:18;16.90;;;15.30;;
32810;SDS011;65470;47.324;8.548;2023-05-23T00:42:44;16.35;;;14.85;;
32810;SDS011;65470;47.324;8.548;2023-05-23T00:45:11;17.80;;;15.95;;
32810;SDS011;65470;47.324;8.548;2023-05-23T00:47:38;21.88;;;17.15;;
32810;SDS011;65470;47.324;8.548;2023-05-23T00:50:06;20.58;;;18.08;;
32810;SDS011;65470;47.324;8.548;2023-05-23T00:52:33;23.77;;;18.77;;
32810;SDS011;65470;47.324;8.548;2023-05-23T00:54:59;20.17;;;18.05;;
32810;SDS011;65470;47.324;8.548;2023-05-23T00:57:25;20.25;;;18.08;;
32810;SDS011;65470;47.324;8.548;2023-05-23T00:59:51;18.65;;;16.77;;
32810;SDS011;65470;47.324;8.548;2023-05-23T01:02:17;19.08;;;17.17;;
32810;SDS011;65470;47.324;8.548;2023-05-23T01:04:45;21.63;;;16.60;;
32810;SDS011;65470;47.324;8.548;2023-05-23T01:07:18;19.73;;;17.83;;
32810;SDS011;65470;47.324;8.548;2023-05-23T01:09:46;20.90;;;18.05;;
32810;SDS011;65470;47.324;8.548;2023-05-23T01:12:24;19.30;;;17.30;;
32810;SDS011;65470;47.324;8.548;2023-05-23T01:15:06;18.15;;;16.35;;
32810;SDS011;65470;47.324;8.548;2023-05-23T01:27:54;16.58;;;14.88;;
32810;SDS011;65470;47.324;8.548;2023-05-23T01:30:24;25.17;;;18.77;;
32810;SDS011;65470;47.324;8.548;2023-05-23T01:32:54;19.25;;;16.77;;
32810;SDS011;65470;47.324;8.548;2023-05-23T01:35:25;18.45;;;16.65;;
32810;SDS011;65470;47.324;8.548;2023-05-23T01:37:52;19.23;;;16.75;;
32810;SDS011;65470;47.324;8.548;2023-05-23T01:40:21;18.50;;;16.70;;
32810;SDS011;65470;47.324;8.548;2023-05-23T01:42:48;19.38;;;17.20;;
32810;SDS011;65470;47.324;8.548;2023-05-23T01:45:15;18.08;;;16.27;;
32810;SDS011;65470;47.324;8.548;2023-05-23T01:47:41;16.67;;;14.77;;
32810;SDS011;65470;47.324;8.548;2023-05-23T01:50:07;16.05;;;14.48;;
32810;SDS011;65470;47.324;8.548;2023-05-23T01:52:34;14.65;;;13.15;;
32810;SDS011;65470;47.324;8.548;2023-05-23T01:55:02;18.77;;;15.55;;
32810;SDS011;65470;47.324;8.548;2023-05-23T01:57:33;18.55;;;16.65;;
32810;SDS011;65470;47.324;8.548;2023-05-23T02:00:03;20.65;;;18.17;;
32810;SDS011;65470;47.324;8.548;2023-05-23T02:03:13;20.55;;;18.15;;
32810;SDS011;65470;47.324;8.548;2023-05-23T02:05:39;18.98;;;16.85;;
32810;SDS011;65470;47.324;8.548;2023-05-23T02:08:05;18.20;;;16.05;;
32810;SDS011;65470;47.324;8.548;2023-05-23T02:10:31;18.90;;;16.83;;
32810;SDS011;65470;47.324;8.548;2023-05-23T02:12:56;21.20;;;16.63;;
32810;SDS011;65470;47.324;8.548;2023-05-23T02:15:22;17.25;;;15.45;;
32810;SDS011;65470;47.324;8.548;2023-05-23T02:17:47;20.70;;;15.90;;
32810;SDS011;65470;47.324;8.548;2023-05-23T02:20:13;18.52;;;16.67;;
32810;SDS011;65470;47.324;8.548;2023-05-23T02:22:39;17.50;;;15.73;;
32810;SDS011;65470;47.324;8.548;2023-05-23T02:25:05;22.77;;;17.17;;
32810;SDS011;65470;47.324;8.548;2023-05-23T02:27:31;18.48;;;16.70;;
32810;SDS011;65470;47.324;8.548;2023-05-23T02:29:57;16.75;;;15.07;;
32810;SDS011;65470;47.324;8.548;2023-05-23T02:32:22;16.73;;;13.93;;
32810;SDS011;65470;47.324;8.548;2023-05-23T02:34:48;19.00;;;14.80;;
32810;SDS011;65470;47.324;8.548;2023-05-23T02:37:14;19.35;;;17.25;;
32810;SDS011;65470;47.324;8.548;2023-05-23T02:39:40;17.92;;;16.05;;
32810;SDS011;65470;47.324;8.548;2023-05-23T02:42:07;16.92;;;14.55;;
32810;SDS011;65470;47.324;8.548;2023-05-23T02:44:33;15.75;;;14.20;;
32810;SDS011;65470;47.324;8.548;2023-05-23T02:46:58;16.30;;;14.73;;
32810;SDS011;65470;47.324;8.548;2023-05-23T02:49:24;18.13;;;16.23;;
32810;SDS011;65470;47.324;8.548;2023-05-23T02:51:50;17.60;;;15.80;;
32810;SDS011;65470;47.324;8.548;2023-05-23T02:54:15;18.48;;;16.52;;
32810;SDS011;65470;47.324;8.548;2023-05-23T02:56:41;18.00;;;16.25;;
32810;SDS011;65470;47.324;8.548;2023-05-23T02:59:09;18.10;;;16.23;;
32810;SDS011;65470;47.324;8.548;2023-05-23T03:01:36;16.95;;;15.25;;
32810;SDS011;65470;47.324;8.548;2023-05-23T03:04:02;17.48;;;15.88;;
32810;SDS011;65470;47.324;8.548;2023-05-23T03:06:28;17.67;;;15.98;;
32810;SDS011;65470;47.324;8.548;2023-05-23T03:08:56;15.88;;;14.23;;
32810;SDS011;65470;47.324;8.548;2023-05-23T03:11:21;18.73;;;15.48;;
32810;SDS011;65470;47.324;8.548;2023-05-23T03:13:47;20.33;;;17.35;;
32810;SDS011;65470;47.324;8.548;2023-05-23T03:16:12;19.35;;;17.45;;
32810;SDS011;65470;47.324;8.548;2023-05-23T03:18:38;18.17;;;16.33;;
32810;SDS011;65470;47.324;8.548;2023-05-23T03:21:06;24.58;;;19.38;;
32810;SDS011;65470;47.324;8.548;2023-05-23T03:23:31;19.88;;;17.95;;
32810;SDS011;65470;47.324;8.548;2023-05-23T03:25:57;23.08;;;18.38;;
32810;SDS011;65470;47.324;8.548;2023-05-23T03:28:23;23.40;;;18.40;;
32810;SDS011;65470;47.324;8.548;2023-05-23T03:30:49;20.30;;;18.38;;
32810;SDS011;65470;47.324;8.548;2023-05-23T03:33:14;22.05;;;19.50;;
32810;SDS011;65470;47.324;8.548;2023-05-23T03:35:40;22.25;;;19.52;;
32810;SDS011;65470;47.324;8.548;2023-05-23T03:38:06;22.77;;;18.65;;
32810;SDS011;65470;47.324;8.548;2023-05-23T03:40:31;21.20;;;18.25;;
32810;SDS011;65470;47.324;8.548;2023-05-23T03:43:00;21.45;;;17.70;;
32810;SDS011;65470;47.324;8.548;2023-05-23T03:45:28;19.70;;;17.58;;
32810;SDS011;65470;47.324;8.548;2023-05-23T03:47:58;20.10;;;18.15;;
32810;SDS011;65470;47.324;8.548;2023-05-23T03:50:23;23.35;;;18.80;;
32810;SDS011;65470;47.324;8.548;2023-05-23T03:52:49;24.35;;;21.25;;
32810;SDS011;65470;47.324;8.548;2023-05-23T03:55:15;19.90;;;18.00;;
32810;SDS011;65470;47.324;8.548;2023-05-23T03:57:40;20.60;;;18.40;;
32810;SDS011;65470;47.324;8.548;2023-05-23T04:00:06;18.88;;;16.90;;
32810;SDS011;65470;47.324;8.548;2023-05-23T04:02:36;23.50;;;19.55;;
32810;SDS011;65470;47.324;8.548;2023-05-23T04:05:03;19.77;;;17.98;;
32810;SDS011;65470;47.324;8.548;2023-05-23T04:07:29;23.20;;;19.92;;
32810;SDS011;65470;47.324;8.548;2023-05-23T04:09:58;22.13;;;19.98;;
32810;SDS011;65470;47.324;8.548;2023-05-23T04:12:24;20.80;;;18.90;;
32810;SDS011;65470;47.324;8.548;2023-05-23T04:14:50;19.45;;;17.27;;
32810;SDS011;65470;47.324;8.548;2023-05-23T04:17:16;18.67;;;16.88;;
32810;SDS011;65470;47.324;8.548;2023-05-23T04:19:42;21.38;;;19.20;;
32810;SDS011;65470;47.324;8.548;2023-05-23T04:22:08;21.13;;;18.77;;
32810;SDS011;65470;47.324;8.548;2023-05-23T04:24:34;23.83;;;21.42;;
32810;SDS011;65470;47.324;8.548;2023-05-23T04:27:01;22.27;;;19.88;;
32810;SDS011;65470;47.324;8.548;2023-05-23T04:29:26;21.40;;;19.23;;
32810;SDS011;65470;47.324;8.548;2023-05-23T04:31:55;23.75;;;19.48;;
32810;SDS011;65470;47.324;8.548;2023-05-23T04:34:21;21.55;;;19.27;;
32810;SDS011;65470;47.324;8.548;2023-05-23T04:36:47;21.85;;;19.52;;
32810;SDS011;65470;47.324;8.548;2023-05-23T04:39:13;20.38;;;18.45;;
32810;SDS011;65470;47.324;8.548;2023-05-23T04:41:40;21.48;;;19.23;;
32810;SDS011;65470;47.324;8.548;2023-05-23T04:44:06;19.83;;;17.10;;
32810;SDS011;65470;47.324;8.548;2023-05-23T04:46:34;18.38;;;16.52;;
32810;SDS011;65470;47.324;8.548;2023-05-23T04:49:00;17.48;;;15.75;;
32810;SDS011;65470;47.324;8.548;2023-05-23T04:51:26;17.92;;;16.23;;
32810;SDS011;65470;47.324;8.548;2023-05-23T04:53:51;23.42;;;16.88;;
32810;SDS011;65470;47.324;8.548;2023-05-23T04:56:17;19.67;;;17.58;;
32810;SDS011;65470;47.324;8.548;2023-05-23T04:58:45;19.42;;;17.52;;
32810;SDS011;65470;47.324;8.548;2023-05-23T05:01:11;20.02;;;17.08;;
32810;SDS011;65470;47.324;8.548;2023-05-23T05:03:37;22.38;;;19.77;;
32810;SDS011;65470;47.324;8.548;2023-05-23T05:06:03;18.90;;;17.10;;
32810;SDS011;65470;47.324;8.548;2023-05-23T05:08:30;19.45;;;16.42;;
32810;SDS011;65470;47.324;8.548;2023-05-23T05:10:56;18.40;;;16.20;;
32810;SDS011;65470;47.324;8.548;2023-05-23T05:13:21;19.88;;;17.25;;
32810;SDS011;65470;47.324;8.548;2023-05-23T05:15:47;22.33;;;17.75;;
32810;SDS011;65470;47.324;8.548;2023-05-23T05:18:13;20.75;;;17.50;;
32810;SDS011;65470;47.324;8.548;2023-05-23T05:20:39;19.73;;;16.50;;
32810;SDS011;65470;47.324;8.548;2023-05-23T05:23:04;20.10;;;18.10;;
32810;SDS011;65470;47.324;8.548;2023-05-23T05:25:30;18.48;;;16.67;;
32810;SDS011;65470;47.324;8.548;2023-05-23T05:27:57;19.27;;;16.40;;
32810;SDS011;65470;47.324;8.548;2023-05-23T05:30:26;20.83;;;18.75;;
32810;SDS011;65470;47.324;8.548;2023-05-23T05:32:51;20.15;;;18.05;;
32810;SDS011;65470;47.324;8.548;2023-05-23T05:35:17;20.30;;;18.30;;
32810;SDS011;65470;47.324;8.548;2023-05-23T05:37:42;27.00;;;17.83;;
32810;SDS011;65470;47.324;8.548;2023-05-23T05:40:08;19.05;;;17.10;;
32810;SDS011;65470;47.324;8.548;2023-05-23T05:42:34;19.95;;;17.92;;
32810;SDS011;65470;47.324;8.548;2023-05-23T05:45:00;22.33;;;17.80;;
32810;SDS011;65470;47.324;8.548;2023-05-23T05:47:25;19.65;;;17.52;;
32810;SDS011;65470;47.324;8.548;2023-05-23T05:49:51;23.10;;;18.08;;
32810;SDS011;65470;47.324;8.548;2023-05-23T05:52:17;20.73;;;17.70;;
32810;SDS011;65470;47.324;8.548;2023-05-23T05:54:42;18.67;;;16.67;;
32810;SDS011;65470;47.324;8.548;2023-05-23T05:57:08;19.88;;;15.90;;
32810;SDS011;65470;47.324;8.548;2023-05-23T05:59:33;18.27;;;16.45;;
32810;SDS011;65470;47.324;8.548;2023-05-23T06:01:59;18.48;;;16.27;;
32810;SDS011;65470;47.324;8.548;2023-05-23T06:04:25;20.33;;;18.25;;
32810;SDS011;65470;47.324;8.548;2023-05-23T06:06:51;16.60;;;15.00;;
32810;SDS011;65470;47.324;8.548;2023-05-23T06:09:16;17.83;;;16.10;;
32810;SDS011;65470;47.324;8.548;2023-05-23T06:11:42;18.17;;;16.27;;
32810;SDS011;65470;47.324;8.548;2023-05-23T06:14:08;17.63;;;15.93;;
32810;SDS011;65470;47.324;8.548;2023-05-23T06:16:33;18.67;;;16.75;;
32810;SDS011;65470;47.324;8.548;2023-05-23T06:18:59;17.90;;;16.17;;
32810;SDS011;65470;47.324;8.548;2023-05-23T06:21:25;20.13;;;16.02;;
32810;SDS011;65470;47.324;8.548;2023-05-23T06:23:51;19.08;;;17.10;;
32810;SDS011;65470;47.324;8.548;2023-05-23T06:26:17;28.73;;;16.00;;
32810;SDS011;65470;47.324;8.548;2023-05-23T06:28:42;18.42;;;15.93;;
32810;SDS011;65470;47.324;8.548;2023-05-23T06:31:08;16.85;;;15.15;;
32810;SDS011;65470;47.324;8.548;2023-05-23T06:33:34;17.33;;;15.52;;
32810;SDS011;65470;47.324;8.548;2023-05-23T06:35:59;17.58;;;15.02;;
32810;SDS011;65470;47.324;8.548;2023-05-23T06:38:28;19.73;;;15.20;;
32810;SDS011;65470;47.324;8.548;2023-05-23T06:40:57;19.95;;;14.77;;
32810;SDS011;65470;47.324;8.548;2023-05-23T06:43:23;14.88;;;13.25;;
32810;SDS011;65470;47.324;8.548;2023-05-23T06:45:49;15.43;;;13.80;;
32810;SDS011;65470;47.324;8.548;2023-05-23T06:48:14;15.75;;;14.05;;
32810;SDS011;65470;47.324;8.548;2023-05-23T06:50:40;17.60;;;14.02;;
32810;SDS011;65470;47.324;8.548;2023-05-23T06:53:06;16.63;;;14.93;;
32810;SDS011;65470;47.324;8.548;2023-05-23T06:55:32;17.88;;;14.80;;
32810;SDS011;65470;47.324;8.548;2023-05-23T06:58:00;17.35;;;14.45;;
32810;SDS011;65470;47.324;8.548;2023-05-23T07:00:28;16.27;;;14.52;;
32810;SDS011;65470;47.324;8.548;2023-05-23T07:02:55;19.40;;;16.20;;
32810;SDS011;65470;47.324;8.548;2023-05-23T07:05:24;18.08;;;15.98;;
32810;SDS011;65470;47.324;8.548;2023-05-23T07:07:53;19.08;;;15.65;;
32810;SDS011;65470;47.324;8.548;2023-05-23T07:10:19;17.38;;;15.63;;
32810;SDS011;65470;47.324;8.548;2023-05-23T07:12:45;17.48;;;12.88;;
32810;SDS011;65470;47.324;8.548;2023-05-23T07:15:11;15.80;;;14.30;;
32810;SDS011;65470;47.324;8.548;2023-05-23T07:17:37;15.85;;;14.35;;
32810;SDS011;65470;47.324;8.548;2023-05-23T07:20:03;17.00;;;15.27;;
32810;SDS011;65470;47.324;8.548;2023-05-23T07:22:29;19.58;;;14.57;;
32810;SDS011;65470;47.324;8.548;2023-05-23T07:24:55;16.20;;;14.68;;
32810;SDS011;65470;47.324;8.548;2023-05-23T07:27:21;15.38;;;13.88;;
32810;SDS011;65470;47.324;8.548;2023-05-23T07:29:46;22.15;;;15.25;;
32810;SDS011;65470;47.324;8.548;2023-05-23T07:32:12;19.38;;;14.90;;
32810;SDS011;65470;47.324;8.548;2023-05-23T07:34:38;22.45;;;19.35;;
32810;SDS011;65470;47.324;8.548;2023-05-23T07:37:03;19.23;;;16.17;;
32810;SDS011;65470;47.324;8.548;2023-05-23T07:39:29;18.65;;;16.55;;
32810;SDS011;65470;47.324;8.548;2023-05-23T07:41:55;22.05;;;19.33;;
32810;SDS011;65470;47.324;8.548;2023-05-23T07:44:20;19.00;;;17.10;;
32810;SDS011;65470;47.324;8.548;2023-05-23T07:46:46;19.10;;;17.20;;
32810;SDS011;65470;47.324;8.548;2023-05-23T07:49:11;19.42;;;17.25;;
32810;SDS011;65470;47.324;8.548;2023-05-23T07:51:37;21.42;;;18.35;;
32810;SDS011;65470;47.324;8.548;2023-05-23T07:54:03;20.33;;;18.00;;
32810;SDS011;65470;47.324;8.548;2023-05-23T07:56:28;18.40;;;16.73;;
32810;SDS011;65470;47.324;8.548;2023-05-23T07:58:55;19.30;;;17.27;;
32810;SDS011;65470;47.324;8.548;2023-05-23T08:01:20;26.30;;;18.55;;
32810;SDS011;65470;47.324;8.548;2023-05-23T08:03:46;20.58;;;17.35;;
32810;SDS011;65470;47.324;8.548;2023-05-23T08:06:12;37.42;;;27.05;;
32810;SDS011;65470;47.324;8.548;2023-05-23T08:08:38;24.58;;;17.10;;
32810;SDS011;65470;47.324;8.548;2023-05-23T08:11:03;18.63;;;16.80;;
32810;SDS011;65470;47.324;8.548;2023-05-23T08:13:29;19.40;;;17.35;;
32810;SDS011;65470;47.324;8.548;2023-05-23T08:15:55;20.23;;;18.33;;
32810;SDS011;65470;47.324;8.548;2023-05-23T08:18:21;20.42;;;16.58;;
32810;SDS011;65470;47.324;8.548;2023-05-23T08:20:46;20.40;;;18.35;;
32810;SDS011;65470;47.324;8.548;2023-05-23T08:23:12;20.00;;;17.75;;
32810;SDS011;65470;47.324;8.548;2023-05-23T08:25:39;20.92;;;18.83;;
32810;SDS011;65470;47.324;8.548;2023-05-23T08:28:04;20.58;;;18.25;;
32810;SDS011;65470;47.324;8.548;2023-05-23T08:30:30;19.73;;;17.67;;
32810;SDS011;65470;47.324;8.548;2023-05-23T08:32:57;19.05;;;17.25;;
32810;SDS011;65470;47.324;8.548;2023-05-23T08:35:24;22.33;;;17.52;;
32810;SDS011;65470;47.324;8.548;2023-05-23T08:37:53;20.00;;;18.05;;
32810;SDS011;65470;47.324;8.548;2023-05-23T08:40:20;20.88;;;18.67;;
32810;SDS011;65470;47.324;8.548;2023-05-23T08:42:47;20.67;;;18.30;;
32810;SDS011;65470;47.324;8.548;2023-05-23T08:45:16;20.30;;;18.20;;
32810;SDS011;65470;47.324;8.548;2023-05-23T08:47:42;19.67;;;17.88;;
32810;SDS011;65470;47.324;8.548;2023-05-23T08:50:11;22.38;;;18.60;;
32810;SDS011;65470;47.324;8.548;2023-05-23T08:52:54;21.75;;;17.02;;
32810;SDS011;65470;47.324;8.548;2023-05-23T08:55:25;18.55;;;16.73;;
32810;SDS011;65470;47.324;8.548;2023-05-23T08:57:54;24.15;;;21.73;;
32810;SDS011;65470;47.324;8.548;2023-05-23T09:00:21;19.77;;;17.75;;
32810;SDS011;65470;47.324;8.548;2023-05-23T09:02:49;25.05;;;19.85;;
32810;SDS011;65470;47.324;8.548;2023-05-23T09:05:15;18.55;;;16.67;;
32810;SDS011;65470;47.324;8.548;2023-05-23T09:07:42;17.58;;;15.77;;
32810;SDS011;65470;47.324;8.548;2023-05-23T09:10:11;19.67;;;17.70;;
32810;SDS011;65470;47.324;8.548;2023-05-23T09:12:38;22.98;;;20.58;;
32810;SDS011;65470;47.324;8.548;2023-05-23T09:15:04;19.10;;;17.17;;
32810;SDS011;65470;47.324;8.548;2023-05-23T09:17:31;20.70;;;18.73;;
32810;SDS011;65470;47.324;8.548;2023-05-23T09:19:58;20.08;;;17.95;;
32810;SDS011;65470;47.324;8.548;2023-05-23T09:22:25;18.95;;;16.98;;
32810;SDS011;65470;47.324;8.548;2023-05-23T09:24:51;19.58;;;17.75;;
32810;SDS011;65470;47.324;8.548;2023-05-23T09:27:18;20.95;;;18.95;;
32810;SDS011;65470;47.324;8.548;2023-05-23T09:29:44;19.33;;;17.40;;
32810;SDS011;65470;47.324;8.548;2023-05-23T09:32:20;25.02;;;19.95;;
32810;SDS011;65470;47.324;8.548;2023-05-23T09:34:56;19.67;;;17.65;;
32810;SDS011;65470;47.324;8.548;2023-05-23T09:37:34;20.77;;;18.25;;
32810;SDS011;65470;47.324;8.548;2023-05-23T09:40:11;19.65;;;17.25;;
32810;SDS011;65470;47.324;8.548;2023-05-23T09:42:41;20.17;;;16.77;;
32810;SDS011;65470;47.324;8.548;2023-05-23T09:45:08;23.10;;;20.38;;
32810;SDS011;65470;47.324;8.548;2023-05-23T09:47:34;19.35;;;17.70;;
32810;SDS011;65470;47.324;8.548;2023-05-23T09:50:00;17.92;;;16.13;;
32810;SDS011;65470;47.324;8.548;2023-05-23T09:52:26;19.75;;;17.70;;
32810;SDS011;65470;47.324;8.548;2023-05-23T09:54:52;18.85;;;17.02;;
32810;SDS011;65470;47.324;8.548;2023-05-23T09:57:18;19.83;;;16.23;;
32810;SDS011;65470;47.324;8.548;2023-05-23T09:59:50;17.05;;;15.45;;
32810;SDS011;65470;47.324;8.548;2023-05-23T10:02:30;17.27;;;15.55;;
32810;SDS011;65470;47.324;8.548;2023-05-23T10:05:06;16.35;;;14.73;;
32810;SDS011;65470;47.324;8.548;2023-05-23T10:07:37;18.75;;;15.82;;
32810;SDS011;65470;47.324;8.548;2023-05-23T10:10:03;20.92;;;18.15;;
32810;SDS011;65470;47.324;8.548;2023-05-23T10:12:45;21.27;;;19.08;;
32810;SDS011;65470;47.324;8.548;2023-05-23T10:15:14;22.42;;;20.20;;
32810;SDS011;65470;47.324;8.548;2023-05-23T10:20:31;23.95;;;21.33;;
32810;SDS011;65470;47.324;8.548;2023-05-23T10:23:00;37.30;;;27.85;;
32810;SDS011;65470;47.324;8.548;2023-05-23T10:25:27;22.92;;;20.58;;
32810;SDS011;65470;47.324;8.548;2023-05-23T10:27:56;16.25;;;14.48;;
32810;SDS011;65470;47.324;8.548;2023-05-23T10:30:26;16.60;;;15.10;;
32810;SDS011;65470;47.324;8.548;2023-05-23T10:32:55;19.58;;;17.58;;
32810;SDS011;65470;47.324;8.548;2023-05-23T10:41:30;17.90;;;16.00;;
32810;SDS011;65470;47.324;8.548;2023-05-23T10:44:01;17.17;;;15.68;;
32810;SDS011;65470;47.324;8.548;2023-05-23T10:46:52;18.10;;;16.25;;
32810;SDS011;65470;47.324;8.548;2023-05-23T10:49:19;18.55;;;16.55;;
32810;SDS011;65470;47.324;8.548;2023-05-23T10:51:48;22.98;;;20.50;;
32810;SDS011;65470;47.324;8.548;2023-05-23T10:54:17;26.70;;;23.90;;
32810;SDS011;65470;47.324;8.548;2023-05-23T10:56:46;19.77;;;17.92;;
32810;SDS011;65470;47.324;8.548;2023-05-23T10:59:27;21.25;;;19.08;;
32810;SDS011;65470;47.324;8.548;2023-05-23T11:01:53;20.48;;;18.38;;
32810;SDS011;65470;47.324;8.548;2023-05-23T11:04:26;23.10;;;20.90;;
32810;SDS011;65470;47.324;8.548;2023-05-23T11:06:53;18.38;;;16.38;;
32810;SDS011;65470;47.324;8.548;2023-05-23T11:09:19;17.77;;;16.10;;
32810;SDS011;65470;47.324;8.548;2023-05-23T11:12:02;16.45;;;14.73;;
32810;SDS011;65470;47.324;8.548;2023-05-23T11:14:33;16.05;;;14.55;;
32810;SDS011;65470;47.324;8.548;2023-05-23T11:17:29;19.17;;;16.38;;
32810;SDS011;65470;47.324;8.548;2023-05-23T11:19:55;17.75;;;16.05;;
32810;SDS011;65470;47.324;8.548;2023-05-23T11:22:30;16.65;;;15.05;;
32810;SDS011;65470;47.324;8.548;2023-05-23T11:24:57;21.45;;;19.35;;
32810;SDS011;65470;47.324;8.548;2023-05-23T11:27:30;19.23;;;16.25;;
32810;SDS011;65470;47.324;8.548;2023-05-23T11:32:34;17.00;;;15.25;;
32810;SDS011;65470;47.324;8.548;2023-05-23T11:35:04;18.55;;;16.80;;
32810;SDS011;65470;47.324;8.548;2023-05-23T11:37:32;20.05;;;17.75;;
32810;SDS011;65470;47.324;8.548;2023-05-23T11:39:58;27.35;;;24.55;;
32810;SDS011;65470;47.324;8.548;2023-05-23T11:42:25;21.92;;;19.80;;
32810;SDS011;65470;47.324;8.548;2023-05-23T11:44:51;24.48;;;22.08;;
32810;SDS011;65470;47.324;8.548;2023-05-23T11:47:17;23.73;;;21.33;;
32810;SDS011;65470;47.324;8.548;2023-05-23T11:49:46;22.25;;;19.88;;
32810;SDS011;65470;47.324;8.548;2023-05-23T11:52:12;22.95;;;20.52;;
32810;SDS011;65470;47.324;8.548;2023-05-23T11:54:41;22.10;;;20.00;;
32810;SDS011;65470;47.324;8.548;2023-05-23T11:57:10;20.50;;;18.48;;
32810;SDS011;65470;47.324;8.548;2023-05-23T11:59:38;23.73;;;21.40;;
32810;SDS011;65470;47.324;8.548;2023-05-23T12:02:05;22.27;;;20.17;;
32810;SDS011;65470;47.324;8.548;2023-05-23T12:04:33;24.92;;;22.50;;
32810;SDS011;65470;47.324;8.548;2023-05-23T12:07:03;23.92;;;21.52;;
32810;SDS011;65470;47.324;8.548;2023-05-23T12:09:29;25.58;;;20.85;;
32810;SDS011;65470;47.324;8.548;2023-05-23T12:11:54;22.17;;;20.08;;
32810;SDS011;65470;47.324;8.548;2023-05-23T12:14:20;21.70;;;19.48;;
32810;SDS011;65470;47.324;8.548;2023-05-23T12:16:46;23.40;;;21.00;;
32810;SDS011;65470;47.324;8.548;2023-05-23T12:19:12;20.40;;;18.52;;
32810;SDS011;65470;47.324;8.548;2023-05-23T12:21:42;22.67;;;20.40;;
32810;SDS011;65470;47.324;8.548;2023-05-23T12:24:13;23.02;;;20.83;;
32810;SDS011;65470;47.324;8.548;2023-05-23T12:26:45;22.38;;;20.23;;
32810;SDS011;65470;47.324;8.548;2023-05-23T12:29:11;23.42;;;20.98;;
32810;SDS011;65470;47.324;8.548;2023-05-23T12:31:37;23.25;;;20.92;;
32810;SDS011;65470;47.324;8.548;2023-05-23T12:34:03;24.67;;;22.15;;
32810;SDS011;65470;47.324;8.548;2023-05-23T12:36:28;23.02;;;20.60;;
32810;SDS011;65470;47.324;8.548;2023-05-23T12:39:02;23.02;;;20.65;;
32810;SDS011;65470;47.324;8.548;2023-05-23T12:41:28;20.10;;;18.05;;
32810;SDS011;65470;47.324;8.548;2023-05-23T12:43:54;22.08;;;19.88;;
32810;SDS011;65470;47.324;8.548;2023-05-23T12:46:21;20.70;;;18.58;;
32810;SDS011;65470;47.324;8.548;2023-05-23T12:48:48;22.40;;;19.67;;
32810;SDS011;65470;47.324;8.548;2023-05-23T12:51:14;24.63;;;21.95;;
32810;SDS011;65470;47.324;8.548;2023-05-23T12:53:40;26.85;;;22.08;;
32810;SDS011;65470;47.324;8.548;2023-05-23T12:56:06;25.77;;;22.42;;
32810;SDS011;65470;47.324;8.548;2023-05-23T12:58:32;24.60;;;21.00;;
32810;SDS011;65470;47.324;8.548;2023-05-23T13:00:59;26.58;;;22.73;;
32810;SDS011;65470;47.324;8.548;2023-05-23T13:03:25;27.35;;;23.58;;
32810;SDS011;65470;47.324;8.548;2023-05-23T13:05:51;29.50;;;24.55;;
32810;SDS011;65470;47.324;8.548;2023-05-23T13:08:17;27.17;;;24.23;;
32810;SDS011;65470;47.324;8.548;2023-05-23T13:10:44;28.60;;;25.58;;
32810;SDS011;65470;47.324;8.548;2023-05-23T13:13:10;28.58;;;25.48;;
32810;SDS011;65470;47.324;8.548;2023-05-23T13:15:36;30.65;;;25.30;;
32810;SDS011;65470;47.324;8.548;2023-05-23T13:18:02;25.38;;;22.77;;
32810;SDS011;65470;47.324;8.548;2023-05-23T13:20:28;24.88;;;20.52;;
32810;SDS011;65470;47.324;8.548;2023-05-23T13:22:55;23.58;;;19.15;;
32810;SDS011;65470;47.324;8.548;2023-05-23T13:25:25;22.60;;;20.30;;
32810;SDS011;65470;47.324;8.548;2023-05-23T13:27:51;20.67;;;17.23;;
32810;SDS011;65470;47.324;8.548;2023-05-23T13:30:21;19.35;;;17.25;;
32810;SDS011;65470;47.324;8.548;2023-05-23T13:32:47;20.00;;;18.00;;
32810;SDS011;65470;47.324;8.548;2023-05-23T13:35:13;18.67;;;13.43;;
32810;SDS011;65470;47.324;8.548;2023-05-23T13:37:39;16.77;;;11.70;;
32810;SDS011;65470;47.324;8.548;2023-05-23T13:40:05;12.32;;;11.13;;
32810;SDS011;65470;47.324;8.548;2023-05-23T13:42:31;13.98;;;10.82;;
32810;SDS011;65470;47.324;8.548;2023-05-23T13:44:57;13.77;;;10.23;;
32810;SDS011;65470;47.324;8.548;2023-05-23T13:47:23;11.60;;;10.48;;
32810;SDS011;65470;47.324;8.548;2023-05-23T13:49:48;10.63;;;9.63;;
32810;SDS011;65470;47.324;8.548;2023-05-23T13:52:14;13.77;;;10.80;;
32810;SDS011;65470;47.324;8.548;2023-05-23T13:54:40;13.63;;;11.30;;
32810;SDS011;65470;47.324;8.548;2023-05-23T13:57:06;11.80;;;10.60;;
32810;SDS011;65470;47.324;8.548;2023-05-23T13:59:32;14.55;;;11.98;;
32810;SDS011;65470;47.324;8.548;2023-05-23T14:01:58;11.20;;;9.85;;
32810;SDS011;65470;47.324;8.548;2023-05-23T14:04:24;10.43;;;9.43;;
32810;SDS011;65470;47.324;8.548;2023-05-23T14:06:49;10.85;;;9.65;;
32810;SDS011;65470;47.324;8.548;2023-05-23T14:09:15;10.57;;;9.57;;
32810;SDS011;65470;47.324;8.548;2023-05-23T14:11:42;13.00;;;10.18;;
32810;SDS011;65470;47.324;8.548;2023-05-23T14:14:08;9.90;;;9.05;;
32810;SDS011;65470;47.324;8.548;2023-05-23T14:16:34;12.68;;;9.30;;
32810;SDS011;65470;47.324;8.548;2023-05-23T14:18:59;12.95;;;8.90;;
32810;SDS011;65470;47.324;8.548;2023-05-23T14:21:25;11.38;;;8.98;;
32810;SDS011;65470;47.324;8.548;2023-05-23T14:23:52;12.23;;;10.25;;
32810;SDS011;65470;47.324;8.548;2023-05-23T14:26:18;15.68;;;10.18;;
32810;SDS011;65470;47.324;8.548;2023-05-23T14:28:43;11.82;;;9.18;;
32810;SDS011;65470;47.324;8.548;2023-05-23T14:31:09;7.47;;;6.78;;
32810;SDS011;65470;47.324;8.548;2023-05-23T14:33:35;8.30;;;6.55;;
32810;SDS011;65470;47.324;8.548;2023-05-23T14:36:01;11.30;;;7.25;;
32810;SDS011;65470;47.324;8.548;2023-05-23T14:38:26;8.52;;;7.20;;
32810;SDS011;65470;47.324;8.548;2023-05-23T14:40:52;8.15;;;7.25;;
32810;SDS011;65470;47.324;8.548;2023-05-23T14:43:18;9.00;;;7.90;;
32810;SDS011;65470;47.324;8.548;2023-05-23T14:45:44;10.00;;;8.15;;